createdAt,value
2017-08-13T00:01:02.142Z,5.90
2017-08-13T00:03:30.421Z,6.23
2017-08-13T00:05:59.804Z,6.30
2017-08-13T00:08:28.110Z,6.17
2017-08-13T00:10:56.416Z,6.70
2017-08-13T00:13:24.807Z,6.23
2017-08-13T00:15:53.029Z,6.20
2017-08-13T00:18:21.341Z,6.33
2017-08-13T00:20:49.579Z,6.20
2017-08-13T00:23:17.841Z,6.70
2017-08-13T00:25:46.161Z,5.47
2017-08-13T00:28:14.386Z,6.17
2017-08-13T00:30:42.641Z,6.03
2017-08-13T00:33:10.913Z,7.13
2017-08-13T00:35:39.150Z,6.27
2017-08-13T00:38:07.413Z,6.63
2017-08-13T00:40:35.657Z,7.47
2017-08-13T00:43:03.931Z,6.50
2017-08-13T00:45:32.157Z,6.40
2017-08-13T00:48:00.444Z,6.20
2017-08-13T00:50:28.676Z,6.23
2017-08-13T00:52:56.952Z,7.53
2017-08-13T00:55:25.227Z,5.83
2017-08-13T00:57:53.510Z,6.67
2017-08-13T01:00:21.811Z,6.67
2017-08-13T01:02:50.076Z,6.27
2017-08-13T01:05:18.357Z,7.03
2017-08-13T01:07:46.606Z,6.50
2017-08-13T01:10:14.973Z,6.57
2017-08-13T01:12:43.195Z,7.13
2017-08-13T01:15:11.509Z,6.40
2017-08-13T01:17:39.742Z,6.47
2017-08-13T01:20:08.083Z,6.73
2017-08-13T01:22:36.432Z,7.57
2017-08-13T01:25:04.683Z,6.53
2017-08-13T01:27:32.916Z,6.23
2017-08-13T01:30:01.183Z,6.93
2017-08-13T01:32:29.428Z,6.23
2017-08-13T01:34:57.700Z,8.83
2017-08-13T01:37:25.994Z,6.03
2017-08-13T01:39:54.255Z,6.23
2017-08-13T01:42:22.546Z,6.50
2017-08-13T01:44:50.961Z,6.80
2017-08-13T01:47:19.210Z,6.63
2017-08-13T01:49:47.512Z,6.63
2017-08-13T01:52:15.819Z,5.70
2017-08-13T01:54:44.056Z,6.63
2017-08-13T01:57:12.312Z,6.90
2017-08-13T01:59:41.729Z,7.37
2017-08-13T02:02:10.088Z,7.43
2017-08-13T02:04:38.426Z,6.67
2017-08-13T02:07:06.776Z,7.17
2017-08-13T02:09:35.042Z,6.93
2017-08-13T02:12:03.323Z,7.20
2017-08-13T02:14:31.558Z,6.13
2017-08-13T02:16:59.804Z,6.10
2017-08-13T02:19:28.082Z,6.47
2017-08-13T02:21:56.321Z,6.83
2017-08-13T02:24:24.603Z,7.47
2017-08-13T02:26:52.967Z,7.23
2017-08-13T02:29:21.232Z,7.77
2017-08-13T02:31:49.580Z,6.70
2017-08-13T02:34:17.906Z,6.87
2017-08-13T02:36:46.213Z,7.83
2017-08-13T02:39:14.497Z,7.70
2017-08-13T02:41:42.737Z,7.00
2017-08-13T02:44:11.028Z,6.77
2017-08-13T02:46:39.261Z,6.80
2017-08-13T02:49:07.517Z,7.30
2017-08-13T02:51:35.842Z,6.33
2017-08-13T02:54:04.083Z,7.47
2017-08-13T02:56:32.370Z,7.37
2017-08-13T02:59:00.791Z,6.80
2017-08-13T03:01:29.197Z,7.77
2017-08-13T03:03:57.475Z,7.13
2017-08-13T03:06:25.694Z,6.13
2017-08-13T03:08:54.030Z,6.97
2017-08-13T03:11:22.362Z,7.77
2017-08-13T03:13:50.641Z,7.27
2017-08-13T03:16:18.888Z,6.83
2017-08-13T03:18:47.195Z,7.90
2017-08-13T03:21:15.449Z,6.97
2017-08-13T03:23:43.686Z,7.60
2017-08-13T03:26:12.039Z,7.43
2017-08-13T03:28:40.297Z,6.00
2017-08-13T03:31:08.626Z,7.63
2017-08-13T03:33:36.930Z,7.57
2017-08-13T03:36:05.209Z,7.57
2017-08-13T03:38:33.458Z,7.50
2017-08-13T03:41:01.731Z,8.27
2017-08-13T03:43:30.074Z,7.17
2017-08-13T03:45:58.314Z,8.67
2017-08-13T03:48:26.640Z,8.87
2017-08-13T03:50:55.039Z,7.20
2017-08-13T03:53:23.323Z,9.00
2017-08-13T03:55:51.556Z,8.67
2017-08-13T03:58:19.841Z,8.57
2017-08-13T04:00:48.309Z,8.77
2017-08-13T04:03:16.613Z,10.73
2017-08-13T04:05:44.876Z,7.63
2017-08-13T04:08:13.188Z,9.67
2017-08-13T04:10:41.551Z,8.67
2017-08-13T04:13:10.820Z,8.20
2017-08-13T04:15:39.170Z,8.97
2017-08-13T04:18:07.446Z,8.43
2017-08-13T04:20:35.714Z,9.50
2017-08-13T04:23:04.076Z,8.63
2017-08-13T04:25:32.314Z,9.37
2017-08-13T04:28:00.587Z,9.10
2017-08-13T04:30:28.838Z,8.80
2017-08-13T04:32:57.088Z,9.53
2017-08-13T04:35:25.425Z,8.50
2017-08-13T04:37:53.719Z,10.33
2017-08-13T04:40:22.026Z,9.40
2017-08-13T04:42:50.279Z,9.13
2017-08-13T04:45:18.563Z,9.83
2017-08-13T04:47:46.812Z,8.50
2017-08-13T04:50:15.163Z,8.77
2017-08-13T04:52:43.393Z,9.53
2017-08-13T04:55:11.757Z,9.87
2017-08-13T04:57:40.058Z,8.23
2017-08-13T05:00:08.295Z,9.57
2017-08-13T05:02:36.599Z,8.90
2017-08-13T05:05:04.854Z,9.20
2017-08-13T05:07:33.136Z,11.50
2017-08-13T05:10:01.416Z,10.17
2017-08-13T05:12:29.658Z,12.80
2017-08-13T05:14:57.972Z,12.13
2017-08-13T05:17:26.204Z,9.47
2017-08-13T05:19:54.522Z,9.67
2017-08-13T05:22:22.882Z,10.47
2017-08-13T05:24:51.154Z,10.57
2017-08-13T05:27:19.384Z,10.23
2017-08-13T05:29:47.657Z,10.40
2017-08-13T05:32:15.902Z,10.30
2017-08-13T05:34:44.173Z,10.37
2017-08-13T05:37:12.542Z,8.10
2017-08-13T05:39:40.803Z,10.57
2017-08-13T05:42:09.084Z,9.93
2017-08-13T05:44:37.345Z,10.03
2017-08-13T05:47:06.524Z,8.87
2017-08-13T05:49:34.802Z,11.00
2017-08-13T05:52:03.095Z,8.97
2017-08-13T05:54:31.308Z,9.67
2017-08-13T05:56:59.644Z,9.20
2017-08-13T05:59:27.937Z,9.40
2017-08-13T06:01:56.183Z,9.23
2017-08-13T06:04:24.410Z,8.87
2017-08-13T06:06:52.698Z,8.87
2017-08-13T06:09:22.084Z,9.03
2017-08-13T06:11:50.406Z,7.77
2017-08-13T06:14:18.637Z,8.50
2017-08-13T06:16:47.600Z,8.17
2017-08-13T06:19:15.872Z,8.17
2017-08-13T06:21:44.182Z,8.07
2017-08-13T06:24:12.517Z,7.70
2017-08-13T06:26:41.174Z,9.03
2017-08-13T06:29:09.415Z,9.23
2017-08-13T06:31:37.683Z,8.33
2017-08-13T06:34:05.919Z,8.73
2017-08-13T06:36:34.160Z,7.57
2017-08-13T06:39:02.408Z,7.63
2017-08-13T06:41:30.678Z,8.23
2017-08-13T06:43:58.897Z,8.07
2017-08-13T06:46:27.166Z,8.30
2017-08-13T06:48:55.464Z,7.70
2017-08-13T06:51:23.716Z,8.30
2017-08-13T06:53:51.965Z,8.57
2017-08-13T06:56:20.210Z,7.77
2017-08-13T06:58:48.512Z,7.07
2017-08-13T07:01:16.745Z,7.00
2017-08-13T07:03:44.988Z,6.83
2017-08-13T07:06:13.298Z,6.60
2017-08-13T07:08:41.761Z,5.00
2017-08-13T07:11:10.027Z,5.80
2017-08-13T07:13:38.308Z,7.70
2017-08-13T07:16:06.563Z,5.60
2017-08-13T07:18:34.782Z,6.50
2017-08-13T07:21:03.257Z,8.10
2017-08-13T07:23:31.564Z,7.53
2017-08-13T07:25:59.846Z,5.53
2017-08-13T07:28:28.263Z,8.03
2017-08-13T07:30:56.579Z,7.93
2017-08-13T07:33:26.713Z,6.00
2017-08-13T07:35:58.672Z,5.03
2017-08-13T07:38:28.748Z,4.57
2017-08-13T07:40:57.128Z,4.40
2017-08-13T07:43:27.322Z,4.90
2017-08-13T07:45:55.617Z,7.43
2017-08-13T07:48:24.695Z,6.60
2017-08-13T07:50:54.167Z,6.57
2017-08-13T07:53:23.109Z,6.60
2017-08-13T07:55:51.416Z,5.37
2017-08-13T07:58:20.043Z,3.53
2017-08-13T08:00:48.587Z,3.67
2017-08-13T08:03:16.902Z,4.57
2017-08-13T08:05:45.146Z,8.13
2017-08-13T08:08:13.403Z,3.90
2017-08-13T08:10:41.659Z,4.43
2017-08-13T08:13:09.859Z,4.10
2017-08-13T08:15:38.125Z,3.10
2017-08-13T08:18:06.369Z,3.90
2017-08-13T08:20:34.679Z,4.00
2017-08-13T08:23:02.932Z,5.13
2017-08-13T08:25:31.243Z,3.57
2017-08-13T08:27:59.506Z,3.37
2017-08-13T08:30:27.782Z,4.53
2017-08-13T08:32:56.063Z,2.90
2017-08-13T08:35:24.421Z,3.10
2017-08-13T08:37:52.701Z,4.23
2017-08-13T08:40:20.964Z,3.30
2017-08-13T08:42:49.332Z,4.80
2017-08-13T08:45:17.565Z,4.00
2017-08-13T08:47:45.810Z,3.87
2017-08-13T08:50:14.079Z,5.03
2017-08-13T08:52:42.311Z,4.70
2017-08-13T08:55:10.604Z,3.30
2017-08-13T08:57:38.830Z,2.63
2017-08-13T09:00:07.584Z,3.63
2017-08-13T09:02:35.876Z,2.90
2017-08-13T09:05:04.133Z,2.70
2017-08-13T09:07:32.500Z,3.87
2017-08-13T09:10:00.777Z,4.50
2017-08-13T09:12:28.999Z,3.07
2017-08-13T09:14:57.335Z,2.70
2017-08-13T09:17:25.591Z,2.63
2017-08-13T09:19:53.930Z,3.30
2017-08-13T09:22:22.170Z,4.20
2017-08-13T09:24:50.427Z,7.73
2017-08-13T09:27:19.098Z,6.53
2017-08-13T09:29:47.342Z,2.83
2017-08-13T09:32:15.681Z,6.23
2017-08-13T09:34:43.903Z,5.20
2017-08-13T09:37:12.189Z,3.07
2017-08-13T09:39:40.428Z,4.10
2017-08-13T09:42:08.778Z,3.73
2017-08-13T09:44:37.012Z,7.90
2017-08-13T09:47:05.268Z,5.10
2017-08-13T09:49:33.556Z,5.73
2017-08-13T09:52:01.825Z,3.50
2017-08-13T09:54:30.101Z,5.27
2017-08-13T09:56:58.377Z,2.93
2017-08-13T09:59:26.772Z,2.40
2017-08-13T10:01:56.457Z,2.53
2017-08-13T10:04:24.794Z,3.73
2017-08-13T10:06:53.081Z,2.70
2017-08-13T10:09:21.414Z,4.03
2017-08-13T10:11:49.717Z,1.87
2017-08-13T10:14:17.961Z,2.47
2017-08-13T10:16:46.253Z,1.67
2017-08-13T10:19:14.480Z,1.50
2017-08-13T10:21:42.788Z,1.60
2017-08-13T10:24:11.060Z,2.47
2017-08-13T10:26:39.407Z,4.73
2017-08-13T10:29:07.764Z,3.50
2017-08-13T10:31:36.005Z,3.30
2017-08-13T10:34:04.257Z,3.17
2017-08-13T10:36:32.490Z,3.20
2017-08-13T10:39:00.834Z,2.30
2017-08-13T10:41:29.079Z,4.63
2017-08-13T10:43:57.328Z,1.60
2017-08-13T10:46:25.570Z,2.23
2017-08-13T10:48:53.982Z,3.67
2017-08-13T10:51:22.296Z,2.23
2017-08-13T10:53:50.577Z,1.47
2017-08-13T10:56:18.818Z,2.23
2017-08-13T10:58:47.132Z,2.10
2017-08-13T11:01:15.380Z,2.97
2017-08-13T11:03:43.649Z,1.40
2017-08-13T11:06:11.915Z,1.37
2017-08-13T11:08:41.328Z,1.60
2017-08-13T11:11:09.714Z,2.13
2017-08-13T11:13:37.977Z,1.90
2017-08-13T11:16:06.319Z,1.37
2017-08-13T11:18:34.780Z,1.60
2017-08-13T11:21:02.997Z,2.27
2017-08-13T11:23:31.279Z,2.67
2017-08-13T11:25:59.585Z,2.97
2017-08-13T11:28:28.038Z,2.27
2017-08-13T11:30:57.684Z,3.53
2017-08-13T11:33:26.016Z,1.60
2017-08-13T11:35:54.231Z,1.83
2017-08-13T11:38:22.637Z,2.63
2017-08-13T11:40:51.225Z,5.27
2017-08-13T11:43:19.678Z,1.97
2017-08-13T11:45:48.034Z,1.90
2017-08-13T11:48:16.713Z,1.80
2017-08-13T11:50:45.301Z,1.20
2017-08-13T11:53:13.641Z,2.27
2017-08-13T11:55:41.894Z,2.27
2017-08-13T11:58:10.197Z,2.63
2017-08-13T12:00:38.743Z,1.40
2017-08-13T12:03:06.970Z,1.80
2017-08-13T12:05:35.463Z,2.30
2017-08-13T12:08:04.009Z,1.53
2017-08-13T12:10:33.420Z,2.20
2017-08-13T12:13:01.738Z,1.77
2017-08-13T12:15:30.144Z,1.50
2017-08-13T12:17:58.429Z,4.30
2017-08-13T12:20:26.689Z,3.80
2017-08-13T12:22:55.777Z,2.97
2017-08-13T12:25:24.111Z,1.80
2017-08-13T12:27:52.394Z,2.93
2017-08-13T12:30:20.650Z,1.83
2017-08-13T12:32:49.042Z,2.30
2017-08-13T12:35:17.386Z,5.50
2017-08-13T12:37:45.779Z,2.73
2017-08-13T12:40:14.009Z,1.67
2017-08-13T12:42:42.343Z,3.73
2017-08-13T12:45:10.689Z,1.70
2017-08-13T12:47:39.034Z,4.00
2017-08-13T12:50:07.513Z,3.17
2017-08-13T12:52:35.798Z,1.50
2017-08-13T12:55:04.110Z,2.40
2017-08-13T12:57:32.415Z,2.53
2017-08-13T13:00:00.710Z,2.67
2017-08-13T13:02:29.026Z,1.40
2017-08-13T13:04:57.332Z,1.80
2017-08-13T13:07:25.649Z,1.90
2017-08-13T13:09:53.949Z,1.50
2017-08-13T13:12:22.307Z,1.93
2017-08-13T13:14:50.582Z,1.40
2017-08-13T13:17:18.882Z,1.40
2017-08-13T13:19:47.170Z,2.50
2017-08-13T13:22:15.456Z,1.70
2017-08-13T13:24:43.844Z,2.10
2017-08-13T13:27:12.172Z,2.40
2017-08-13T13:29:40.446Z,1.20
2017-08-13T13:32:08.708Z,1.90
2017-08-13T13:34:36.974Z,2.00
2017-08-13T13:37:05.215Z,1.73
2017-08-13T13:39:33.544Z,3.77
2017-08-13T13:42:01.886Z,3.40
2017-08-13T13:44:30.201Z,2.70
2017-08-13T13:46:58.490Z,4.40
2017-08-13T13:49:26.797Z,1.37
2017-08-13T13:51:55.074Z,2.10
2017-08-13T13:54:23.308Z,1.83
2017-08-13T13:56:51.584Z,1.73
2017-08-13T13:59:19.833Z,2.77
2017-08-13T14:01:48.109Z,2.80
2017-08-13T14:04:16.494Z,1.90
2017-08-13T14:06:44.918Z,1.37
2017-08-13T14:09:13.220Z,1.47
2017-08-13T14:11:41.439Z,1.50
2017-08-13T14:14:09.738Z,1.13
2017-08-13T14:16:38.024Z,1.67
2017-08-13T14:19:07.039Z,1.67
2017-08-13T14:21:35.323Z,2.27
2017-08-13T14:24:03.574Z,2.67
2017-08-13T14:26:31.889Z,2.70
2017-08-13T14:29:00.144Z,2.00
2017-08-13T14:31:28.462Z,1.57
2017-08-13T14:33:56.762Z,1.50
2017-08-13T14:36:25.007Z,1.60
2017-08-13T14:38:53.381Z,1.73
2017-08-13T14:41:21.766Z,1.53
2017-08-13T14:43:50.042Z,3.00
2017-08-13T14:46:18.368Z,1.73
2017-08-13T14:48:46.605Z,3.50
2017-08-13T14:51:14.930Z,1.37
2017-08-13T14:53:43.233Z,2.67
2017-08-13T14:56:16.693Z,1.43
2017-08-13T14:58:45.107Z,1.70
2017-08-13T15:01:13.464Z,1.33
2017-08-13T15:03:42.188Z,1.70
2017-08-13T15:06:11.039Z,1.60
2017-08-13T15:08:39.356Z,2.43
2017-08-13T15:11:07.704Z,2.43
2017-08-13T15:13:37.459Z,1.60
2017-08-13T15:16:05.917Z,1.73
2017-08-13T15:18:34.275Z,2.27
2017-08-13T15:21:02.655Z,2.00
2017-08-13T15:23:31.054Z,2.07
2017-08-13T15:25:59.382Z,1.70
2017-08-13T15:28:28.044Z,1.33
2017-08-13T15:30:56.437Z,1.60
2017-08-13T15:33:25.113Z,1.33
2017-08-13T15:35:53.605Z,1.80
2017-08-13T15:38:23.320Z,2.70
2017-08-13T15:40:52.117Z,1.87
2017-08-13T15:43:20.385Z,1.60
2017-08-13T15:45:48.833Z,1.23
2017-08-13T15:48:17.281Z,3.43
2017-08-13T15:50:45.542Z,1.97
2017-08-13T15:53:13.996Z,1.53
2017-08-13T15:55:45.047Z,1.70
2017-08-13T15:58:13.518Z,1.83
2017-08-13T16:00:41.871Z,1.63
2017-08-13T16:03:10.225Z,2.10
2017-08-13T16:05:38.535Z,1.83
2017-08-13T16:08:07.001Z,3.30
2017-08-13T16:10:35.335Z,4.63
2017-08-13T16:13:05.078Z,6.27
2017-08-13T16:15:33.562Z,3.47
2017-08-13T16:18:01.971Z,2.90
2017-08-13T16:20:30.418Z,3.10
2017-08-13T16:22:58.657Z,1.83
2017-08-13T16:25:26.958Z,3.50
2017-08-13T16:27:55.369Z,2.00
2017-08-13T16:30:25.352Z,1.90
2017-08-13T16:32:53.701Z,2.07
2017-08-13T16:35:21.956Z,1.40
2017-08-13T16:37:50.363Z,1.80
2017-08-13T16:40:18.688Z,1.20
2017-08-13T16:42:47.032Z,3.40
2017-08-13T16:45:16.157Z,3.20
2017-08-13T16:47:44.399Z,2.10
2017-08-13T16:50:12.851Z,2.20
2017-08-13T16:52:41.184Z,1.47
2017-08-13T16:55:09.575Z,1.30
2017-08-13T16:57:38.090Z,1.33
2017-08-13T17:00:07.029Z,1.90
2017-08-13T17:02:35.358Z,2.07
2017-08-13T17:05:03.686Z,1.40
2017-08-13T17:07:32.106Z,2.70
2017-08-13T17:10:01.824Z,1.63
2017-08-13T17:12:30.233Z,1.93
2017-08-13T17:14:58.618Z,2.17
2017-08-13T17:17:26.953Z,6.20
2017-08-13T17:19:55.243Z,3.80
2017-08-13T17:22:23.597Z,4.30
2017-08-13T17:24:52.272Z,3.60
2017-08-13T17:27:20.719Z,1.60
2017-08-13T17:29:48.970Z,2.70
2017-08-13T17:32:17.255Z,2.93
2017-08-13T17:34:47.401Z,2.60
2017-08-13T17:37:15.818Z,2.20
2017-08-13T17:39:44.326Z,3.47
2017-08-13T17:42:13.866Z,2.27
2017-08-13T17:44:43.644Z,1.83
2017-08-13T17:47:12.415Z,2.10
2017-08-13T17:49:40.758Z,2.60
2017-08-13T17:52:09.031Z,2.33
2017-08-13T17:54:37.401Z,2.33
2017-08-13T17:57:05.718Z,3.40
2017-08-13T17:59:33.994Z,4.43
2017-08-13T18:02:02.373Z,6.20
2017-08-13T18:04:30.663Z,6.47
2017-08-13T18:06:58.921Z,6.93
2017-08-13T18:09:27.215Z,5.50
2017-08-13T18:11:55.673Z,5.27
2017-08-13T18:14:23.929Z,7.30
2017-08-13T18:16:52.292Z,5.57
2017-08-13T18:19:20.696Z,7.23
2017-08-13T18:21:48.906Z,5.13
2017-08-13T18:24:17.264Z,8.07
2017-08-13T18:26:45.519Z,6.20
2017-08-13T18:29:13.876Z,5.50
2017-08-13T18:31:42.203Z,6.57
2017-08-13T18:34:10.472Z,8.93
2017-08-13T18:36:38.715Z,6.87
2017-08-13T18:39:07.085Z,6.70
2017-08-13T18:41:35.398Z,6.80
2017-08-13T18:44:04.843Z,9.17
2017-08-13T18:46:33.172Z,7.47
2017-08-13T18:49:01.461Z,6.83
2017-08-13T18:51:29.710Z,7.40
2017-08-13T18:53:58.052Z,8.20
2017-08-13T18:56:26.325Z,6.53
2017-08-13T18:58:54.567Z,8.20
2017-08-13T19:01:22.981Z,6.67
2017-08-13T19:03:51.202Z,8.30
2017-08-13T19:06:19.457Z,7.87
2017-08-13T19:08:47.704Z,8.30
2017-08-13T19:11:19.269Z,9.77
2017-08-13T19:13:47.842Z,8.67
2017-08-13T19:16:16.159Z,8.30
2017-08-13T19:18:44.433Z,9.10
2017-08-13T19:21:12.697Z,8.33
2017-08-13T19:23:40.908Z,8.93
2017-08-13T19:26:09.294Z,9.70
2017-08-13T19:28:37.678Z,9.07
2017-08-13T19:31:06.936Z,8.07
2017-08-13T19:33:35.292Z,8.60
2017-08-13T19:36:03.708Z,10.53
2017-08-13T19:38:31.981Z,9.80
2017-08-13T19:41:00.275Z,8.90
2017-08-13T19:43:28.700Z,9.97
2017-08-13T19:45:57.049Z,8.40
2017-08-13T19:48:25.809Z,15.80
2017-08-13T19:50:54.154Z,9.87
2017-08-13T19:53:22.665Z,9.70
2017-08-13T19:55:51.031Z,11.30
2017-08-13T19:58:19.526Z,9.63
2017-08-13T20:00:48.278Z,9.60
2017-08-13T20:03:16.577Z,11.00
2017-08-13T20:05:44.910Z,9.10
2017-08-13T20:08:13.144Z,9.87
2017-08-13T20:10:41.436Z,10.50
2017-08-13T20:13:09.734Z,9.10
2017-08-13T20:15:38.049Z,9.60
2017-08-13T20:18:06.287Z,8.70
2017-08-13T20:20:34.600Z,8.00
2017-08-13T20:23:02.935Z,8.70
2017-08-13T20:25:31.212Z,9.63
2017-08-13T20:27:59.464Z,9.40
2017-08-13T20:30:27.785Z,9.23
2017-08-13T20:32:56.136Z,10.27
2017-08-13T20:35:24.360Z,8.57
2017-08-13T20:37:52.618Z,11.53
2017-08-13T20:40:20.916Z,8.97
2017-08-13T20:42:49.185Z,9.70
2017-08-13T20:45:17.448Z,10.50
2017-08-13T20:47:45.704Z,9.50
2017-08-13T20:50:13.980Z,10.03
2017-08-13T20:52:42.313Z,9.50
2017-08-13T20:55:10.710Z,9.27
2017-08-13T20:57:39.034Z,9.10
2017-08-13T21:00:07.284Z,11.60
2017-08-13T21:02:35.621Z,8.70
2017-08-13T21:05:03.931Z,9.27
2017-08-13T21:07:32.205Z,10.83
2017-08-13T21:10:00.452Z,13.17
2017-08-13T21:12:28.717Z,11.23
2017-08-13T21:14:56.985Z,10.43
2017-08-13T21:17:25.264Z,9.53
2017-08-13T21:19:53.552Z,11.37
2017-08-13T21:22:21.865Z,10.23
2017-08-13T21:24:50.174Z,9.40
2017-08-13T21:27:18.431Z,10.93
2017-08-13T21:29:46.773Z,11.13
2017-08-13T21:32:15.052Z,8.90
2017-08-13T21:34:43.309Z,9.87
2017-08-13T21:37:11.550Z,10.53
2017-08-13T21:39:39.832Z,11.17
2017-08-13T21:42:08.160Z,9.20
2017-08-13T21:44:36.489Z,10.13
2017-08-13T21:47:04.720Z,12.00
2017-08-13T21:49:33.027Z,11.33
2017-08-13T21:52:01.295Z,9.03
2017-08-13T21:54:29.631Z,9.77
2017-08-13T21:56:57.912Z,9.73
2017-08-13T21:59:26.158Z,9.77
2017-08-13T22:01:54.470Z,8.80
2017-08-13T22:04:22.720Z,9.43
2017-08-13T22:06:50.988Z,10.77
2017-08-13T22:09:19.211Z,9.13
2017-08-13T22:11:47.446Z,9.63
2017-08-13T22:14:15.710Z,9.63
2017-08-13T22:16:43.959Z,9.00
2017-08-13T22:19:12.218Z,9.40
2017-08-13T22:21:40.505Z,10.10
2017-08-13T22:24:08.752Z,10.47
2017-08-13T22:26:36.994Z,11.40
2017-08-13T22:29:05.288Z,9.97
2017-08-13T22:31:33.520Z,8.80
2017-08-13T22:34:01.816Z,9.67
2017-08-13T22:36:30.087Z,9.43
2017-08-13T22:38:58.335Z,9.20
2017-08-13T22:41:26.681Z,9.97
2017-08-13T22:43:54.897Z,9.43
2017-08-13T22:46:23.182Z,9.63
2017-08-13T22:48:51.403Z,9.50
2017-08-13T22:51:19.664Z,10.53
2017-08-13T22:53:47.953Z,10.30
2017-08-13T22:56:16.242Z,10.07
2017-08-13T22:58:44.490Z,12.07
2017-08-13T23:01:12.741Z,14.07
2017-08-13T23:03:41.067Z,10.67
2017-08-13T23:06:09.434Z,9.80
2017-08-13T23:08:37.742Z,8.93
2017-08-13T23:11:06.014Z,10.70
2017-08-13T23:13:34.385Z,9.73
2017-08-13T23:16:02.642Z,9.53
2017-08-13T23:18:30.948Z,10.23
2017-08-13T23:20:59.216Z,11.10
2017-08-13T23:23:27.625Z,13.60
2017-08-13T23:25:56.569Z,10.50
2017-08-13T23:28:24.781Z,10.10
2017-08-13T23:30:53.101Z,8.03
2017-08-13T23:33:21.469Z,9.80
2017-08-13T23:35:49.741Z,10.20
2017-08-13T23:38:17.953Z,10.57
2017-08-13T23:40:46.317Z,12.77
2017-08-13T23:43:14.990Z,11.37
2017-08-13T23:45:43.235Z,9.37
2017-08-13T23:48:11.556Z,11.57
2017-08-13T23:50:39.885Z,10.87
2017-08-13T23:53:08.115Z,10.77
2017-08-13T23:55:36.440Z,10.90
2017-08-13T23:58:04.709Z,9.87
